TimeCET,TemperatureF,Dew PointF,Humidity,Sea Level PressureIn,VisibilityMPH,Wind Direction,Wind SpeedMPH,Gust SpeedMPH,PrecipitationIn,Events,Conditions,WindDirDegrees,DateUTC
12:00 AM,46.4,44.6,93,30.01,6.2,West,4.6,-,N/A,,Unknown,260,2012-11-19 23:00:00
12:30 AM,46.4,44.6,93,30.01,6.2,West,4.6,-,N/A,,Unknown,270,2012-11-19 23:30:00
1:00 AM,44.6,42.8,93,30.01,6.2,West,4.6,-,N/A,,Unknown,270,2012-11-20 00:00:00
1:30 AM,44.6,42.8,93,30.01,6.2,West,4.6,-,N/A,,Unknown,270,2012-11-20 00:30:00
2:00 AM,44.6,42.8,93,30.01,6.2,WNW,2.3,-,N/A,,Unknown,290,2012-11-20 01:00:00
2:30 AM,44.6,42.8,93,30.01,6.2,Calm,Calm,-,N/A,,Unknown,0,2012-11-20 01:30:00
3:00 AM,42.8,41.0,93,30.01,6.2,Calm,Calm,-,N/A,,Unknown,0,2012-11-20 02:00:00
3:30 AM,41.0,39.2,93,30.01,6.2,West,4.6,-,N/A,,Unknown,270,2012-11-20 02:30:00
4:00 AM,41.0,41.0,100,30.01,6.2,West,1.2,-,N/A,,Unknown,280,2012-11-20 03:00:00
4:30 AM,41.0,41.0,100,30.01,6.2,West,2.3,-,N/A,,Unknown,270,2012-11-20 03:30:00
5:00 AM,41.0,39.2,93,30.01,6.2,West,2.3,-,N/A,,Unknown,270,2012-11-20 04:00:00
5:30 AM,41.0,39.2,93,30.01,6.2,Calm,Calm,-,N/A,,Unknown,0,2012-11-20 04:30:00
6:00 AM,39.2,39.2,100,30.01,6.2,West,3.5,-,N/A,,Unknown,280,2012-11-20 05:00:00
6:30 AM,41.0,39.2,93,30.01,6.2,West,4.6,-,N/A,,Unknown,280,2012-11-20 05:30:00
7:00 AM,41.0,39.2,93,30.01,6.2,WNW,2.3,-,N/A,,Unknown,300,2012-11-20 06:00:00
7:30 AM,41.0,41.0,100,30.04,6.2,North,3.5,-,N/A,,Unknown,10,2012-11-20 06:30:00
8:00 AM,39.2,39.2,100,30.04,6.2,WNW,4.6,-,N/A,,Unknown,290,2012-11-20 07:00:00
8:30 AM,41.0,41.0,100,30.04,6.2,NW,3.5,-,N/A,,Unknown,310,2012-11-20 07:30:00
9:00 AM,44.6,42.8,93,30.06,6.2,Variable,3.5,-,N/A,,Unknown,0,2012-11-20 08:00:00
9:30 AM,46.4,44.6,93,30.06,6.2,Calm,Calm,-,N/A,,Unknown,0,2012-11-20 08:30:00
10:00 AM,50.0,46.4,87,30.04,6.2,Calm,Calm,-,N/A,,Unknown,0,2012-11-20 09:00:00
10:30 AM,51.8,48.2,88,30.04,6.2,Variable,2.3,-,N/A,,Unknown,0,2012-11-20 09:30:00
11:00 AM,55.4,48.2,77,30.04,6.2,Calm,Calm,-,N/A,,Unknown,0,2012-11-20 10:00:00
11:30 AM,57.2,48.2,72,30.04,6.2,Variable,1.2,-,N/A,,Unknown,0,2012-11-20 10:30:00
12:00 PM,59.0,48.2,67,30.04,6.2,Variable,1.2,-,N/A,,Unknown,0,2012-11-20 11:00:00
12:30 PM,60.8,50.0,68,30.01,6.2,Variable,2.3,-,N/A,,Unknown,0,2012-11-20 11:30:00
1:00 PM,60.8,46.4,59,30.01,6.2,Variable,3.5,-,N/A,,Unknown,0,2012-11-20 12:00:00
1:30 PM,60.8,44.6,55,30.01,6.2,Variable,3.5,-,N/A,,Unknown,0,2012-11-20 12:30:00
2:00 PM,62.6,42.8,48,30.01,6.2,Variable,2.3,-,N/A,,Unknown,0,2012-11-20 13:00:00
2:30 PM,62.6,42.8,48,30.01,6.2,South,4.6,-,N/A,,Unknown,170,2012-11-20 13:30:00
3:00 PM,60.8,44.6,55,30.01,6.2,SSE,5.8,-,N/A,,Unknown,160,2012-11-20 14:00:00
3:30 PM,59.0,44.6,59,29.98,6.2,SSE,5.8,-,N/A,,Unknown,150,2012-11-20 14:30:00
4:00 PM,59.0,46.4,63,29.98,6.2,SSE,4.6,-,N/A,,Unknown,160,2012-11-20 15:00:00
4:30 PM,57.2,46.4,67,29.98,6.2,SE,3.5,-,N/A,,Unknown,140,2012-11-20 15:30:00
5:00 PM,55.4,48.2,77,30.01,6.2,Variable,1.2,-,N/A,,Unknown,0,2012-11-20 16:00:00
5:30 PM,51.8,46.4,82,30.01,6.2,WSW,2.3,-,N/A,,Unknown,250,2012-11-20 16:30:00
6:00 PM,50.0,44.6,82,30.01,6.2,West,2.3,-,N/A,,Unknown,280,2012-11-20 17:00:00
6:30 PM,48.2,44.6,87,30.01,6.2,WNW,2.3,-,N/A,,Unknown,300,2012-11-20 17:30:00
7:00 PM,46.4,44.6,93,30.01,6.2,Calm,Calm,-,N/A,,Unknown,0,2012-11-20 18:00:00
7:30 PM,46.4,42.8,87,30.01,6.2,Calm,Calm,-,N/A,,Unknown,0,2012-11-20 18:30:00
8:00 PM,44.6,42.8,93,30.04,6.2,Calm,Calm,-,N/A,,Unknown,0,2012-11-20 19:00:00
8:30 PM,44.6,42.8,93,30.04,6.2,Variable,2.3,-,N/A,,Unknown,0,2012-11-20 19:30:00
9:00 PM,46.4,42.8,87,30.04,6.2,Variable,2.3,-,N/A,,Unknown,0,2012-11-20 20:00:00
9:30 PM,44.6,42.8,93,30.04,6.2,Variable,2.3,-,N/A,,Unknown,0,2012-11-20 20:30:00
10:00 PM,44.6,42.8,93,30.04,6.2,Variable,2.3,-,N/A,,Unknown,0,2012-11-20 21:00:00
10:30 PM,44.6,42.8,93,30.01,6.2,Variable,1.2,-,N/A,,Unknown,0,2012-11-20 21:30:00
11:00 PM,44.6,42.8,93,30.01,6.2,Variable,2.3,-,N/A,,Mostly Cloudy,0,2012-11-20 22:00:00
11:30 PM,44.6,42.8,93,30.01,6.2,North,8.1,-,N/A,,Partly Cloudy,350,2012-11-20 22:30:00